sensor_id;sensor_type;location;lat;lon;timestamp;P1;durP1;ratioP1;P2;durP2;ratioP2
21675;SDS011;10999;51.332;9.458;2023-04-09T00:00:16;38.85;;;16.45;;
21675;SDS011;10999;51.332;9.458;2023-04-09T00:02:42;33.25;;;15.15;;
21675;SDS011;10999;51.332;9.458;2023-04-09T00:05:10;37.30;;;15.80;;
21675;SDS011;10999;51.332;9.458;2023-04-09T00:07:36;34.35;;;16.30;;
21675;SDS011;10999;51.332;9.458;2023-04-09T00:10:03;35.03;;;16.08;;
21675;SDS011;10999;51.332;9.458;2023-04-09T00:12:31;33.00;;;14.70;;
21675;SDS011;10999;51.332;9.458;2023-04-09T00:14:57;33.35;;;15.38;;
21675;SDS011;10999;51.332;9.458;2023-04-09T00:17:24;36.60;;;16.38;;
21675;SDS011;10999;51.332;9.458;2023-04-09T00:19:51;39.70;;;16.27;;
21675;SDS011;10999;51.332;9.458;2023-04-09T00:22:18;36.45;;;16.10;;
21675;SDS011;10999;51.332;9.458;2023-04-09T00:24:45;37.78;;;17.67;;
21675;SDS011;10999;51.332;9.458;2023-04-09T00:27:12;38.22;;;16.50;;
21675;SDS011;10999;51.332;9.458;2023-04-09T00:29:38;38.08;;;16.65;;
21675;SDS011;10999;51.332;9.458;2023-04-09T00:32:06;38.65;;;16.50;;
21675;SDS011;10999;51.332;9.458;2023-04-09T00:34:33;35.85;;;15.38;;
21675;SDS011;10999;51.332;9.458;2023-04-09T00:36:59;34.42;;;16.17;;
21675;SDS011;10999;51.332;9.458;2023-04-09T00:39:26;31.13;;;15.07;;
21675;SDS011;10999;51.332;9.458;2023-04-09T00:41:59;33.50;;;16.15;;
21675;SDS011;10999;51.332;9.458;2023-04-09T00:44:29;33.97;;;15.00;;
21675;SDS011;10999;51.332;9.458;2023-04-09T00:46:56;36.35;;;15.80;;
21675;SDS011;10999;51.332;9.458;2023-04-09T00:49:24;32.97;;;15.85;;
21675;SDS011;10999;51.332;9.458;2023-04-09T00:51:51;34.63;;;16.50;;
21675;SDS011;10999;51.332;9.458;2023-04-09T00:54:19;38.50;;;16.23;;
21675;SDS011;10999;51.332;9.458;2023-04-09T00:56:45;33.22;;;15.63;;
21675;SDS011;10999;51.332;9.458;2023-04-09T00:59:13;41.08;;;16.83;;
21675;SDS011;10999;51.332;9.458;2023-04-09T01:01:40;36.05;;;16.38;;
21675;SDS011;10999;51.332;9.458;2023-04-09T01:04:07;34.53;;;16.00;;
21675;SDS011;10999;51.332;9.458;2023-04-09T01:17:17;38.95;;;17.67;;
21675;SDS011;10999;51.332;9.458;2023-04-09T01:20:02;38.13;;;17.73;;
21675;SDS011;10999;51.332;9.458;2023-04-09T01:22:44;35.88;;;16.33;;
21675;SDS011;10999;51.332;9.458;2023-04-09T01:28:22;37.47;;;16.73;;
21675;SDS011;10999;51.332;9.458;2023-04-09T01:30:58;37.85;;;17.45;;
21675;SDS011;10999;51.332;9.458;2023-04-09T01:33:28;40.75;;;15.80;;
21675;SDS011;10999;51.332;9.458;2023-04-09T01:35:56;33.33;;;15.57;;
21675;SDS011;10999;51.332;9.458;2023-04-09T01:38:24;42.78;;;16.77;;
21675;SDS011;10999;51.332;9.458;2023-04-09T01:40:53;38.35;;;17.65;;
21675;SDS011;10999;51.332;9.458;2023-04-09T01:43:21;37.13;;;17.80;;
21675;SDS011;10999;51.332;9.458;2023-04-09T01:45:49;36.17;;;16.05;;
21675;SDS011;10999;51.332;9.458;2023-04-09T01:48:17;36.22;;;15.93;;
21675;SDS011;10999;51.332;9.458;2023-04-09T01:50:45;33.60;;;15.07;;
21675;SDS011;10999;51.332;9.458;2023-04-09T01:53:12;36.53;;;16.23;;
21675;SDS011;10999;51.332;9.458;2023-04-09T01:55:39;37.17;;;17.20;;
21675;SDS011;10999;51.332;9.458;2023-04-09T01:58:06;34.67;;;15.35;;
21675;SDS011;10999;51.332;9.458;2023-04-09T02:00:54;34.08;;;15.38;;
21675;SDS011;10999;51.332;9.458;2023-04-09T02:03:45;32.38;;;15.85;;
21675;SDS011;10999;51.332;9.458;2023-04-09T02:06:24;38.50;;;16.23;;
21675;SDS011;10999;51.332;9.458;2023-04-09T02:08:54;36.03;;;15.65;;
21675;SDS011;10999;51.332;9.458;2023-04-09T02:11:23;35.85;;;14.95;;
21675;SDS011;10999;51.332;9.458;2023-04-09T02:13:54;33.92;;;16.73;;
21675;SDS011;10999;51.332;9.458;2023-04-09T02:16:22;40.30;;;16.33;;
21675;SDS011;10999;51.332;9.458;2023-04-09T02:18:52;32.25;;;14.88;;
21675;SDS011;10999;51.332;9.458;2023-04-09T02:21:22;33.72;;;15.93;;
21675;SDS011;10999;51.332;9.458;2023-04-09T02:23:49;34.60;;;15.38;;
21675;SDS011;10999;51.332;9.458;2023-04-09T02:26:16;38.90;;;17.20;;
21675;SDS011;10999;51.332;9.458;2023-04-09T02:28:43;32.38;;;14.75;;
21675;SDS011;10999;51.332;9.458;2023-04-09T02:31:09;34.38;;;15.48;;
21675;SDS011;10999;51.332;9.458;2023-04-09T02:33:36;40.28;;;16.13;;
21675;SDS011;10999;51.332;9.458;2023-04-09T02:36:04;34.00;;;15.52;;
21675;SDS011;10999;51.332;9.458;2023-04-09T02:38:31;35.55;;;16.83;;
21675;SDS011;10999;51.332;9.458;2023-04-09T02:40:58;37.90;;;17.95;;
21675;SDS011;10999;51.332;9.458;2023-04-09T02:43:25;37.33;;;17.15;;
21675;SDS011;10999;51.332;9.458;2023-04-09T02:45:52;36.30;;;16.25;;
21675;SDS011;10999;51.332;9.458;2023-04-09T02:48:19;37.85;;;16.77;;
21675;SDS011;10999;51.332;9.458;2023-04-09T02:50:46;33.50;;;15.90;;
21675;SDS011;10999;51.332;9.458;2023-04-09T02:53:12;39.03;;;17.35;;
21675;SDS011;10999;51.332;9.458;2023-04-09T02:55:39;38.95;;;17.63;;
21675;SDS011;10999;51.332;9.458;2023-04-09T02:58:06;35.00;;;17.13;;
21675;SDS011;10999;51.332;9.458;2023-04-09T03:00:33;39.40;;;18.25;;
21675;SDS011;10999;51.332;9.458;2023-04-09T03:03:00;38.95;;;16.85;;
21675;SDS011;10999;51.332;9.458;2023-04-09T03:05:27;43.80;;;17.45;;
21675;SDS011;10999;51.332;9.458;2023-04-09T03:07:54;40.42;;;16.67;;
21675;SDS011;10999;51.332;9.458;2023-04-09T03:10:21;41.85;;;18.30;;
21675;SDS011;10999;51.332;9.458;2023-04-09T03:12:47;43.90;;;19.38;;
21675;SDS011;10999;51.332;9.458;2023-04-09T03:15:14;43.60;;;17.70;;
21675;SDS011;10999;51.332;9.458;2023-04-09T03:17:41;43.88;;;17.75;;
21675;SDS011;10999;51.332;9.458;2023-04-09T03:20:08;39.95;;;17.40;;
21675;SDS011;10999;51.332;9.458;2023-04-09T03:22:36;40.58;;;17.48;;
21675;SDS011;10999;51.332;9.458;2023-04-09T03:25:03;42.20;;;17.42;;
21675;SDS011;10999;51.332;9.458;2023-04-09T03:27:31;37.53;;;17.63;;
21675;SDS011;10999;51.332;9.458;2023-04-09T03:29:58;37.33;;;16.92;;
21675;SDS011;10999;51.332;9.458;2023-04-09T03:32:25;40.60;;;15.82;;
21675;SDS011;10999;51.332;9.458;2023-04-09T03:34:51;37.83;;;16.17;;
21675;SDS011;10999;51.332;9.458;2023-04-09T03:37:18;38.47;;;17.05;;
21675;SDS011;10999;51.332;9.458;2023-04-09T03:39:45;35.95;;;17.05;;
21675;SDS011;10999;51.332;9.458;2023-04-09T03:42:12;38.25;;;17.45;;
21675;SDS011;10999;51.332;9.458;2023-04-09T03:44:39;39.45;;;17.42;;
21675;SDS011;10999;51.332;9.458;2023-04-09T03:47:06;44.28;;;18.05;;
21675;SDS011;10999;51.332;9.458;2023-04-09T03:49:36;42.15;;;18.08;;
21675;SDS011;10999;51.332;9.458;2023-04-09T03:52:03;37.05;;;16.67;;
21675;SDS011;10999;51.332;9.458;2023-04-09T03:54:31;34.13;;;17.88;;
21675;SDS011;10999;51.332;9.458;2023-04-09T03:56:58;39.08;;;17.90;;
21675;SDS011;10999;51.332;9.458;2023-04-09T03:59:26;33.47;;;16.67;;
21675;SDS011;10999;51.332;9.458;2023-04-09T04:01:53;38.30;;;17.42;;
21675;SDS011;10999;51.332;9.458;2023-04-09T04:04:20;34.83;;;15.57;;
21675;SDS011;10999;51.332;9.458;2023-04-09T04:06:49;40.47;;;16.27;;
21675;SDS011;10999;51.332;9.458;2023-04-09T04:09:16;36.47;;;16.27;;
21675;SDS011;10999;51.332;9.458;2023-04-09T04:11:42;36.15;;;16.60;;
21675;SDS011;10999;51.332;9.458;2023-04-09T04:14:09;35.88;;;16.63;;
21675;SDS011;10999;51.332;9.458;2023-04-09T04:16:36;37.60;;;16.25;;
21675;SDS011;10999;51.332;9.458;2023-04-09T04:19:05;37.35;;;16.80;;
21675;SDS011;10999;51.332;9.458;2023-04-09T04:21:32;36.72;;;17.42;;
21675;SDS011;10999;51.332;9.458;2023-04-09T04:23:59;39.70;;;16.40;;
21675;SDS011;10999;51.332;9.458;2023-04-09T04:26:26;39.90;;;18.00;;
21675;SDS011;10999;51.332;9.458;2023-04-09T04:28:52;36.17;;;15.52;;
21675;SDS011;10999;51.332;9.458;2023-04-09T04:31:19;36.10;;;16.27;;
21675;SDS011;10999;51.332;9.458;2023-04-09T04:33:46;42.97;;;17.48;;
21675;SDS011;10999;51.332;9.458;2023-04-09T04:36:13;37.08;;;16.88;;
21675;SDS011;10999;51.332;9.458;2023-04-09T04:38:40;40.75;;;18.05;;
21675;SDS011;10999;51.332;9.458;2023-04-09T04:41:07;39.35;;;17.45;;
21675;SDS011;10999;51.332;9.458;2023-04-09T04:43:36;40.17;;;17.73;;
21675;SDS011;10999;51.332;9.458;2023-04-09T04:46:02;42.33;;;17.00;;
21675;SDS011;10999;51.332;9.458;2023-04-09T04:48:29;40.05;;;17.08;;
21675;SDS011;10999;51.332;9.458;2023-04-09T04:50:57;40.13;;;17.67;;
21675;SDS011;10999;51.332;9.458;2023-04-09T04:53:26;39.65;;;16.85;;
21675;SDS011;10999;51.332;9.458;2023-04-09T04:55:53;38.13;;;17.23;;
21675;SDS011;10999;51.332;9.458;2023-04-09T04:58:20;41.58;;;17.35;;
21675;SDS011;10999;51.332;9.458;2023-04-09T05:00:47;39.28;;;18.17;;
21675;SDS011;10999;51.332;9.458;2023-04-09T05:03:14;46.10;;;19.00;;
21675;SDS011;10999;51.332;9.458;2023-04-09T05:05:41;40.72;;;17.35;;
21675;SDS011;10999;51.332;9.458;2023-04-09T05:08:08;42.78;;;18.13;;
21675;SDS011;10999;51.332;9.458;2023-04-09T05:10:35;39.20;;;18.33;;
21675;SDS011;10999;51.332;9.458;2023-04-09T05:13:02;43.40;;;17.90;;
21675;SDS011;10999;51.332;9.458;2023-04-09T05:15:29;41.17;;;17.75;;
21675;SDS011;10999;51.332;9.458;2023-04-09T05:17:56;38.33;;;17.55;;
21675;SDS011;10999;51.332;9.458;2023-04-09T05:20:23;40.22;;;17.95;;
21675;SDS011;10999;51.332;9.458;2023-04-09T05:22:52;38.95;;;17.45;;
21675;SDS011;10999;51.332;9.458;2023-04-09T05:25:19;37.45;;;17.13;;
21675;SDS011;10999;51.332;9.458;2023-04-09T05:27:45;43.30;;;18.10;;
21675;SDS011;10999;51.332;9.458;2023-04-09T05:30:12;37.88;;;17.10;;
21675;SDS011;10999;51.332;9.458;2023-04-09T05:32:39;38.90;;;18.23;;
21675;SDS011;10999;51.332;9.458;2023-04-09T05:35:06;44.00;;;18.33;;
21675;SDS011;10999;51.332;9.458;2023-04-09T05:37:33;36.92;;;16.60;;
21675;SDS011;10999;51.332;9.458;2023-04-09T05:39:59;40.20;;;18.13;;
21675;SDS011;10999;51.332;9.458;2023-04-09T05:42:26;45.70;;;18.00;;
21675;SDS011;10999;51.332;9.458;2023-04-09T05:44:53;42.35;;;19.20;;
21675;SDS011;10999;51.332;9.458;2023-04-09T05:47:20;41.30;;;18.63;;
21675;SDS011;10999;51.332;9.458;2023-04-09T05:49:47;38.75;;;18.00;;
21675;SDS011;10999;51.332;9.458;2023-04-09T05:52:14;40.80;;;18.20;;
21675;SDS011;10999;51.332;9.458;2023-04-09T05:54:46;42.17;;;18.65;;
21675;SDS011;10999;51.332;9.458;2023-04-09T05:57:13;39.97;;;18.33;;
21675;SDS011;10999;51.332;9.458;2023-04-09T05:59:40;38.47;;;16.88;;
21675;SDS011;10999;51.332;9.458;2023-04-09T06:02:07;40.22;;;17.60;;
21675;SDS011;10999;51.332;9.458;2023-04-09T06:04:34;45.25;;;19.60;;
21675;SDS011;10999;51.332;9.458;2023-04-09T06:07:00;37.58;;;16.80;;
21675;SDS011;10999;51.332;9.458;2023-04-09T06:09:27;41.92;;;19.83;;
21675;SDS011;10999;51.332;9.458;2023-04-09T06:11:54;40.25;;;17.23;;
21675;SDS011;10999;51.332;9.458;2023-04-09T06:14:21;40.25;;;17.92;;
21675;SDS011;10999;51.332;9.458;2023-04-09T06:16:47;40.03;;;17.75;;
21675;SDS011;10999;51.332;9.458;2023-04-09T06:19:15;40.92;;;17.90;;
21675;SDS011;10999;51.332;9.458;2023-04-09T06:21:41;38.72;;;18.38;;
21675;SDS011;10999;51.332;9.458;2023-04-09T06:24:08;37.15;;;18.35;;
21675;SDS011;10999;51.332;9.458;2023-04-09T06:26:35;40.53;;;18.85;;
21675;SDS011;10999;51.332;9.458;2023-04-09T06:29:02;38.33;;;17.30;;
21675;SDS011;10999;51.332;9.458;2023-04-09T06:31:29;36.95;;;19.23;;
21675;SDS011;10999;51.332;9.458;2023-04-09T06:33:56;39.55;;;18.40;;
21675;SDS011;10999;51.332;9.458;2023-04-09T06:36:23;41.50;;;17.85;;
21675;SDS011;10999;51.332;9.458;2023-04-09T06:38:52;38.28;;;17.10;;
21675;SDS011;10999;51.332;9.458;2023-04-09T06:41:20;39.70;;;18.73;;
21675;SDS011;10999;51.332;9.458;2023-04-09T06:43:47;43.03;;;17.83;;
21675;SDS011;10999;51.332;9.458;2023-04-09T06:46:15;40.50;;;17.85;;
21675;SDS011;10999;51.332;9.458;2023-04-09T06:48:45;39.40;;;18.30;;
21675;SDS011;10999;51.332;9.458;2023-04-09T06:51:12;39.75;;;18.15;;
21675;SDS011;10999;51.332;9.458;2023-04-09T06:53:40;37.92;;;17.30;;
21675;SDS011;10999;51.332;9.458;2023-04-09T06:56:07;36.28;;;17.40;;
21675;SDS011;10999;51.332;9.458;2023-04-09T06:58:34;35.67;;;16.38;;
21675;SDS011;10999;51.332;9.458;2023-04-09T07:01:00;41.40;;;18.15;;
21675;SDS011;10999;51.332;9.458;2023-04-09T07:03:27;38.08;;;17.10;;
21675;SDS011;10999;51.332;9.458;2023-04-09T07:05:55;38.15;;;17.75;;
21675;SDS011;10999;51.332;9.458;2023-04-09T07:08:22;36.80;;;17.33;;
21675;SDS011;10999;51.332;9.458;2023-04-09T07:10:49;34.03;;;16.95;;
21675;SDS011;10999;51.332;9.458;2023-04-09T07:13:16;37.45;;;17.02;;
21675;SDS011;10999;51.332;9.458;2023-04-09T07:15:43;30.48;;;15.88;;
21675;SDS011;10999;51.332;9.458;2023-04-09T07:18:10;38.60;;;17.42;;
21675;SDS011;10999;51.332;9.458;2023-04-09T07:20:36;35.85;;;16.58;;
21675;SDS011;10999;51.332;9.458;2023-04-09T07:23:03;37.03;;;17.23;;
21675;SDS011;10999;51.332;9.458;2023-04-09T07:25:30;35.22;;;15.52;;
21675;SDS011;10999;51.332;9.458;2023-04-09T07:27:57;34.33;;;15.43;;
21675;SDS011;10999;51.332;9.458;2023-04-09T07:30:24;28.63;;;13.77;;
21675;SDS011;10999;51.332;9.458;2023-04-09T07:32:51;30.92;;;15.05;;
21675;SDS011;10999;51.332;9.458;2023-04-09T07:35:18;30.90;;;14.18;;
21675;SDS011;10999;51.332;9.458;2023-04-09T07:37:44;32.65;;;15.35;;
21675;SDS011;10999;51.332;9.458;2023-04-09T07:40:11;32.38;;;14.48;;
21675;SDS011;10999;51.332;9.458;2023-04-09T07:42:38;28.15;;;13.32;;
21675;SDS011;10999;51.332;9.458;2023-04-09T07:45:05;28.73;;;13.00;;
21675;SDS011;10999;51.332;9.458;2023-04-09T07:47:33;35.58;;;14.95;;
21675;SDS011;10999;51.332;9.458;2023-04-09T07:49:59;29.83;;;14.55;;
21675;SDS011;10999;51.332;9.458;2023-04-09T07:52:26;32.00;;;14.82;;
21675;SDS011;10999;51.332;9.458;2023-04-09T07:54:53;29.05;;;13.90;;
21675;SDS011;10999;51.332;9.458;2023-04-09T07:57:20;27.45;;;14.43;;
21675;SDS011;10999;51.332;9.458;2023-04-09T07:59:47;27.83;;;13.18;;
21675;SDS011;10999;51.332;9.458;2023-04-09T08:02:14;28.17;;;13.93;;
21675;SDS011;10999;51.332;9.458;2023-04-09T08:04:41;24.45;;;12.23;;
21675;SDS011;10999;51.332;9.458;2023-04-09T08:07:08;27.02;;;12.88;;
21675;SDS011;10999;51.332;9.458;2023-04-09T08:09:34;25.13;;;12.63;;
21675;SDS011;10999;51.332;9.458;2023-04-09T08:12:01;26.38;;;12.95;;
21675;SDS011;10999;51.332;9.458;2023-04-09T08:14:28;23.98;;;12.20;;
21675;SDS011;10999;51.332;9.458;2023-04-09T08:16:55;27.17;;;12.52;;
21675;SDS011;10999;51.332;9.458;2023-04-09T08:19:22;26.83;;;12.32;;
21675;SDS011;10999;51.332;9.458;2023-04-09T08:21:49;24.50;;;11.30;;
21675;SDS011;10999;51.332;9.458;2023-04-09T08:24:17;27.70;;;12.70;;
21675;SDS011;10999;51.332;9.458;2023-04-09T08:26:44;24.50;;;12.27;;
21675;SDS011;10999;51.332;9.458;2023-04-09T08:29:12;24.35;;;11.65;;
21675;SDS011;10999;51.332;9.458;2023-04-09T08:31:40;25.40;;;11.60;;
21675;SDS011;10999;51.332;9.458;2023-04-09T08:34:07;24.60;;;11.85;;
21675;SDS011;10999;51.332;9.458;2023-04-09T08:36:33;24.33;;;11.52;;
21675;SDS011;10999;51.332;9.458;2023-04-09T08:39:01;23.90;;;11.05;;
21675;SDS011;10999;51.332;9.458;2023-04-09T08:41:28;24.00;;;12.25;;
21675;SDS011;10999;51.332;9.458;2023-04-09T08:43:56;24.70;;;11.20;;
21675;SDS011;10999;51.332;9.458;2023-04-09T08:46:25;25.33;;;11.32;;
21675;SDS011;10999;51.332;9.458;2023-04-09T08:48:53;22.88;;;11.95;;
21675;SDS011;10999;51.332;9.458;2023-04-09T08:51:21;25.88;;;11.57;;
21675;SDS011;10999;51.332;9.458;2023-04-09T08:53:55;26.63;;;11.57;;
21675;SDS011;10999;51.332;9.458;2023-04-09T08:56:29;23.13;;;12.10;;
21675;SDS011;10999;51.332;9.458;2023-04-09T08:58:56;24.20;;;11.38;;
21675;SDS011;10999;51.332;9.458;2023-04-09T09:01:27;23.60;;;12.18;;
21675;SDS011;10999;51.332;9.458;2023-04-09T09:06:36;23.42;;;11.95;;
21675;SDS011;10999;51.332;9.458;2023-04-09T09:09:06;20.30;;;10.25;;
21675;SDS011;10999;51.332;9.458;2023-04-09T09:11:36;20.70;;;10.80;;
21675;SDS011;10999;51.332;9.458;2023-04-09T09:14:09;21.52;;;9.98;;
21675;SDS011;10999;51.332;9.458;2023-04-09T09:16:39;20.77;;;11.32;;
21675;SDS011;10999;51.332;9.458;2023-04-09T09:19:29;22.45;;;10.40;;
21675;SDS011;10999;51.332;9.458;2023-04-09T09:22:07;23.95;;;11.93;;
21675;SDS011;10999;51.332;9.458;2023-04-09T09:24:44;23.98;;;12.07;;
21675;SDS011;10999;51.332;9.458;2023-04-09T09:30:02;22.45;;;11.10;;
21675;SDS011;10999;51.332;9.458;2023-04-09T09:32:34;22.73;;;11.95;;
21675;SDS011;10999;51.332;9.458;2023-04-09T09:35:02;21.38;;;11.45;;
21675;SDS011;10999;51.332;9.458;2023-04-09T09:37:30;24.45;;;11.23;;
21675;SDS011;10999;51.332;9.458;2023-04-09T09:39:59;24.83;;;9.98;;
21675;SDS011;10999;51.332;9.458;2023-04-09T09:42:26;22.77;;;10.05;;
21675;SDS011;10999;51.332;9.458;2023-04-09T09:44:53;19.65;;;8.77;;
21675;SDS011;10999;51.332;9.458;2023-04-09T09:47:21;18.13;;;9.30;;
21675;SDS011;10999;51.332;9.458;2023-04-09T09:49:49;17.92;;;8.70;;
21675;SDS011;10999;51.332;9.458;2023-04-09T09:52:19;17.67;;;8.68;;
21675;SDS011;10999;51.332;9.458;2023-04-09T09:54:50;18.67;;;8.93;;
21675;SDS011;10999;51.332;9.458;2023-04-09T09:57:18;19.13;;;9.35;;
21675;SDS011;10999;51.332;9.458;2023-04-09T09:59:52;18.67;;;9.18;;
21675;SDS011;10999;51.332;9.458;2023-04-09T10:02:23;20.02;;;9.70;;
21675;SDS011;10999;51.332;9.458;2023-04-09T10:04:56;20.10;;;8.38;;
21675;SDS011;10999;51.332;9.458;2023-04-09T10:07:26;16.70;;;8.85;;
21675;SDS011;10999;51.332;9.458;2023-04-09T10:09:53;19.35;;;9.60;;
21675;SDS011;10999;51.332;9.458;2023-04-09T10:12:22;21.05;;;9.07;;
21675;SDS011;10999;51.332;9.458;2023-04-09T10:14:51;17.83;;;9.52;;
21675;SDS011;10999;51.332;9.458;2023-04-09T10:17:20;20.42;;;9.60;;
21675;SDS011;10999;51.332;9.458;2023-04-09T10:20:00;19.88;;;9.45;;
21675;SDS011;10999;51.332;9.458;2023-04-09T10:22:48;18.67;;;8.13;;
21675;SDS011;10999;51.332;9.458;2023-04-09T10:25:17;22.20;;;9.07;;
21675;SDS011;10999;51.332;9.458;2023-04-09T10:27:44;20.60;;;8.82;;
21675;SDS011;10999;51.332;9.458;2023-04-09T10:30:30;19.67;;;8.85;;
21675;SDS011;10999;51.332;9.458;2023-04-09T10:33:11;21.02;;;9.18;;
21675;SDS011;10999;51.332;9.458;2023-04-09T10:35:40;18.25;;;8.50;;
21675;SDS011;10999;51.332;9.458;2023-04-09T10:38:08;20.73;;;8.63;;
21675;SDS011;10999;51.332;9.458;2023-04-09T10:40:54;20.02;;;9.60;;
21675;SDS011;10999;51.332;9.458;2023-04-09T10:43:20;20.98;;;9.07;;
21675;SDS011;10999;51.332;9.458;2023-04-09T10:45:48;19.13;;;7.78;;
21675;SDS011;10999;51.332;9.458;2023-04-09T10:48:19;16.98;;;8.02;;
21675;SDS011;10999;51.332;9.458;2023-04-09T10:50:48;21.55;;;9.90;;
21675;SDS011;10999;51.332;9.458;2023-04-09T10:53:21;18.80;;;8.40;;
21675;SDS011;10999;51.332;9.458;2023-04-09T10:55:49;18.67;;;8.25;;
21675;SDS011;10999;51.332;9.458;2023-04-09T10:58:20;20.08;;;10.00;;
21675;SDS011;10999;51.332;9.458;2023-04-09T11:00:47;19.80;;;9.20;;
21675;SDS011;10999;51.332;9.458;2023-04-09T11:03:20;22.77;;;9.45;;
21675;SDS011;10999;51.332;9.458;2023-04-09T11:05:49;20.45;;;10.00;;
21675;SDS011;10999;51.332;9.458;2023-04-09T11:08:18;21.17;;;9.07;;
21675;SDS011;10999;51.332;9.458;2023-04-09T11:10:47;21.00;;;9.02;;
21675;SDS011;10999;51.332;9.458;2023-04-09T11:13:17;20.45;;;9.52;;
21675;SDS011;10999;51.332;9.458;2023-04-09T11:15:46;19.48;;;9.15;;
21675;SDS011;10999;51.332;9.458;2023-04-09T11:18:13;18.38;;;8.88;;
21675;SDS011;10999;51.332;9.458;2023-04-09T11:20:44;20.25;;;9.73;;
21675;SDS011;10999;51.332;9.458;2023-04-09T11:23:11;19.45;;;9.43;;
21675;SDS011;10999;51.332;9.458;2023-04-09T11:25:39;19.73;;;9.07;;
21675;SDS011;10999;51.332;9.458;2023-04-09T11:28:05;21.67;;;10.15;;
21675;SDS011;10999;51.332;9.458;2023-04-09T11:30:33;21.38;;;9.15;;
21675;SDS011;10999;51.332;9.458;2023-04-09T11:33:00;18.33;;;9.13;;
21675;SDS011;10999;51.332;9.458;2023-04-09T11:35:27;19.35;;;8.82;;
21675;SDS011;10999;51.332;9.458;2023-04-09T11:37:54;22.15;;;10.32;;
21675;SDS011;10999;51.332;9.458;2023-04-09T11:40:25;20.55;;;9.18;;
21675;SDS011;10999;51.332;9.458;2023-04-09T11:42:54;20.40;;;9.65;;
21675;SDS011;10999;51.332;9.458;2023-04-09T11:45:26;22.25;;;9.95;;
21675;SDS011;10999;51.332;9.458;2023-04-09T11:47:54;24.88;;;10.32;;
21675;SDS011;10999;51.332;9.458;2023-04-09T11:50:21;23.58;;;9.98;;
21675;SDS011;10999;51.332;9.458;2023-04-09T11:52:48;19.48;;;9.50;;
21675;SDS011;10999;51.332;9.458;2023-04-09T11:55:22;20.73;;;8.90;;
21675;SDS011;10999;51.332;9.458;2023-04-09T11:57:50;18.58;;;8.43;;
21675;SDS011;10999;51.332;9.458;2023-04-09T12:00:19;18.85;;;9.35;;
21675;SDS011;10999;51.332;9.458;2023-04-09T12:02:47;19.92;;;9.45;;
21675;SDS011;10999;51.332;9.458;2023-04-09T12:05:21;18.05;;;9.45;;
21675;SDS011;10999;51.332;9.458;2023-04-09T12:07:57;17.75;;;7.97;;
21675;SDS011;10999;51.332;9.458;2023-04-09T12:10:30;19.33;;;8.73;;
21675;SDS011;10999;51.332;9.458;2023-04-09T12:13:12;19.95;;;8.77;;
21675;SDS011;10999;51.332;9.458;2023-04-09T12:15:40;20.50;;;9.82;;
21675;SDS011;10999;51.332;9.458;2023-04-09T12:18:09;21.35;;;9.30;;
21675;SDS011;10999;51.332;9.458;2023-04-09T12:20:37;18.52;;;8.98;;
21675;SDS011;10999;51.332;9.458;2023-04-09T12:23:06;19.70;;;8.88;;
21675;SDS011;10999;51.332;9.458;2023-04-09T12:25:40;18.50;;;8.82;;
21675;SDS011;10999;51.332;9.458;2023-04-09T12:28:10;18.77;;;8.57;;
21675;SDS011;10999;51.332;9.458;2023-04-09T12:30:39;17.88;;;8.15;;
21675;SDS011;10999;51.332;9.458;2023-04-09T12:33:06;17.88;;;7.53;;
21675;SDS011;10999;51.332;9.458;2023-04-09T12:35:36;15.18;;;7.13;;
21675;SDS011;10999;51.332;9.458;2023-04-09T12:38:04;18.85;;;8.65;;
21675;SDS011;10999;51.332;9.458;2023-04-09T12:40:34;15.18;;;6.90;;
21675;SDS011;10999;51.332;9.458;2023-04-09T12:43:02;18.80;;;7.95;;
21675;SDS011;10999;51.332;9.458;2023-04-09T12:45:29;18.77;;;7.75;;
21675;SDS011;10999;51.332;9.458;2023-04-09T12:47:57;17.05;;;8.10;;
21675;SDS011;10999;51.332;9.458;2023-04-09T12:50:24;18.92;;;8.48;;
21675;SDS011;10999;51.332;9.458;2023-04-09T12:52:51;15.80;;;7.47;;
21675;SDS011;10999;51.332;9.458;2023-04-09T12:55:18;16.35;;;8.00;;
21675;SDS011;10999;51.332;9.458;2023-04-09T12:57:44;14.85;;;7.65;;
21675;SDS011;10999;51.332;9.458;2023-04-09T13:00:14;19.15;;;7.47;;
21675;SDS011;10999;51.332;9.458;2023-04-09T13:02:41;17.35;;;6.80;;
21675;SDS011;10999;51.332;9.458;2023-04-09T13:05:08;15.77;;;7.78;;
21675;SDS011;10999;51.332;9.458;2023-04-09T13:07:35;15.45;;;7.07;;
21675;SDS011;10999;51.332;9.458;2023-04-09T13:10:02;17.17;;;7.38;;
21675;SDS011;10999;51.332;9.458;2023-04-09T13:12:29;16.73;;;7.75;;
21675;SDS011;10999;51.332;9.458;2023-04-09T13:14:55;14.40;;;7.20;;
21675;SDS011;10999;51.332;9.458;2023-04-09T13:17:24;17.08;;;7.55;;
21675;SDS011;10999;51.332;9.458;2023-04-09T13:19:51;16.40;;;7.97;;
21675;SDS011;10999;51.332;9.458;2023-04-09T13:22:18;14.73;;;6.82;;
21675;SDS011;10999;51.332;9.458;2023-04-09T13:24:45;14.52;;;7.03;;
21675;SDS011;10999;51.332;9.458;2023-04-09T13:27:12;16.80;;;7.43;;
21675;SDS011;10999;51.332;9.458;2023-04-09T13:29:39;15.98;;;7.30;;
21675;SDS011;10999;51.332;9.458;2023-04-09T13:32:06;17.50;;;7.45;;
21675;SDS011;10999;51.332;9.458;2023-04-09T13:34:33;15.10;;;7.20;;
21675;SDS011;10999;51.332;9.458;2023-04-09T13:37:01;15.90;;;7.85;;
21675;SDS011;10999;51.332;9.458;2023-04-09T13:39:28;14.82;;;6.80;;
21675;SDS011;10999;51.332;9.458;2023-04-09T13:41:55;14.90;;;7.15;;
21675;SDS011;10999;51.332;9.458;2023-04-09T13:44:23;17.20;;;7.68;;
21675;SDS011;10999;51.332;9.458;2023-04-09T13:46:50;16.35;;;7.25;;
21675;SDS011;10999;51.332;9.458;2023-04-09T13:49:17;14.25;;;6.03;;
21675;SDS011;10999;51.332;9.458;2023-04-09T13:51:44;16.42;;;6.50;;
21675;SDS011;10999;51.332;9.458;2023-04-09T13:54:11;13.32;;;6.90;;
21675;SDS011;10999;51.332;9.458;2023-04-09T13:56:38;14.60;;;6.90;;
21675;SDS011;10999;51.332;9.458;2023-04-09T13:59:05;14.20;;;6.40;;
21675;SDS011;10999;51.332;9.458;2023-04-09T14:01:32;14.90;;;6.70;;
21675;SDS011;10999;51.332;9.458;2023-04-09T14:04:00;13.35;;;6.28;;
21675;SDS011;10999;51.332;9.458;2023-04-09T14:06:27;15.40;;;7.28;;
21675;SDS011;10999;51.332;9.458;2023-04-09T14:08:54;14.70;;;7.00;;
21675;SDS011;10999;51.332;9.458;2023-04-09T14:11:21;16.25;;;6.95;;
21675;SDS011;10999;51.332;9.458;2023-04-09T14:13:48;15.40;;;7.22;;
21675;SDS011;10999;51.332;9.458;2023-04-09T14:16:14;15.23;;;7.30;;
21675;SDS011;10999;51.332;9.458;2023-04-09T14:18:41;17.65;;;7.55;;
21675;SDS011;10999;51.332;9.458;2023-04-09T14:21:08;15.85;;;7.07;;
21675;SDS011;10999;51.332;9.458;2023-04-09T14:23:35;15.35;;;7.18;;
21675;SDS011;10999;51.332;9.458;2023-04-09T14:26:04;14.73;;;6.55;;
21675;SDS011;10999;51.332;9.458;2023-04-09T14:28:31;16.92;;;7.35;;
21675;SDS011;10999;51.332;9.458;2023-04-09T14:30:58;13.80;;;6.47;;
21675;SDS011;10999;51.332;9.458;2023-04-09T14:33:26;15.60;;;6.65;;
21675;SDS011;10999;51.332;9.458;2023-04-09T14:35:53;13.07;;;6.00;;
21675;SDS011;10999;51.332;9.458;2023-04-09T14:38:20;13.65;;;6.32;;
21675;SDS011;10999;51.332;9.458;2023-04-09T14:40:49;13.10;;;6.47;;
21675;SDS011;10999;51.332;9.458;2023-04-09T14:43:17;15.90;;;7.18;;
21675;SDS011;10999;51.332;9.458;2023-04-09T14:45:43;12.75;;;6.13;;
21675;SDS011;10999;51.332;9.458;2023-04-09T14:48:10;15.35;;;7.03;;
21675;SDS011;10999;51.332;9.458;2023-04-09T14:50:37;14.00;;;6.40;;